Deal, New Jersey
Current Conditions -  °F | °C
As of 5:35 AM on Saturday 22 Nov 2014 (Local Time) from KBLM Reporting Station
Clear Clear  
Wind Chill: 14°   Ceiling: Unl
Heat Index: 21°   Visibility: 10mi
Dew Point:   Wind: 6mph
Humidity: 58%   Direction: 250°WSW
Pressure: 30.5"   Gusts: NA
Location:  40.24°N, 74°W
Report Text: KBLM 221035Z AUTO 25005KT 10SM CLR M06/M13 A3050 RMK AO1
Loading
Personal Weather Stations






























Interactive Weather Map New forecast layout! Learn more

10-Day Weather Forecast

Advertisements
Track Severe Weather on mobile